Time;durP1;ratioP1;P1;durP2;ratioP2;P2;SDS_P1;SDS_P2;PMS_P1;PMS_P2;Temp;Humidity;BMP_temperature;BMP_pressure;BME280_temperature;BME280_humidity;BME280_pressure;Samples;Min_cycle;Max_cycle;Signal;HPM_P1;HPM_P2
2021/05/25 00:01:41;;;;;;;72.63;18.33;;;;;;;-150.07;62.42;61355.22;4915131;29;20502;-80
2021/05/25 00:04:07;;;;;;;55.33;15.82;;;;;;;-150.07;60.92;61353.13;4915576;29;20360;-78
2021/05/25 00:06:34;;;;;;;61.88;13.27;;;;;;;-150.07;61.37;61102.03;4915297;29;20028;-79
2021/05/25 00:09:02;;;;;;;55.30;15.70;;;;;;;-150.07;61.20;61321.75;4915232;29;20025;-79
2021/05/25 00:11:31;;;;;;;61.67;14.48;;;;;;;-150.07;61.64;60980.69;4912443;29;20044;-79
2021/05/25 00:13:59;;;;;;;69.32;16.92;;;;;;;-150.07;60.46;61418.00;4904303;29;20032;-80
2021/05/25 00:16:25;;;;;;;59.20;18.80;;;;;;;-150.07;60.09;61955.81;4914921;29;20035;-80
2021/05/25 00:18:52;;;;;;;55.03;16.05;;;;;;;-150.07;58.59;61528.91;4915045;29;20028;-79
2021/05/25 00:21:19;;;;;;;64.47;13.77;;;;;;;-150.07;59.29;61445.19;4915366;29;20028;-80
2021/05/25 00:23:46;;;;;;;66.95;15.57;;;;;;;-150.07;60.07;61608.41;4914799;29;20024;-81
2021/05/25 00:26:13;;;;;;;84.72;21.02;;;;;;;-150.07;59.52;61307.09;4914800;29;20028;-79
2021/05/25 00:28:41;;;;;;;69.18;16.60;;;;;;;-150.07;58.98;61461.94;4914515;29;20028;-79
2021/05/25 00:31:08;;;;;;;65.15;17.02;;;;;;;-150.07;58.45;61482.88;4914813;29;20936;-80
2021/05/25 00:33:35;;;;;;;59.78;15.05;;;;;;;-150.07;58.45;61641.91;4914842;29;20036;-79
2021/05/25 00:36:02;;;;;;;63.47;14.60;;;;;;;-150.07;58.19;61353.13;4914593;29;20042;-79
2021/05/25 00:38:29;;;;;;;56.70;15.05;;;;;;;-150.07;57.41;61637.72;4914614;29;20550;-79
2021/05/25 00:40:55;;;;;;;64.43;18.20;;;;;;;-150.07;56.45;61432.66;4914929;29;20493;-80
2021/05/25 00:43:22;;;;;;;67.75;17.38;;;;;;;-150.07;56.38;61658.66;4914621;29;20115;-79
2021/05/25 00:45:49;;;;;;;67.80;15.38;;;;;;;-150.07;56.98;61524.72;4896746;29;20403;-79
2021/05/25 00:48:16;;;;;;;82.85;19.25;;;;;;;-150.07;57.54;61664.94;4896863;29;20037;-79
2021/05/25 00:50:43;;;;;;;67.07;16.33;;;;;;;-150.07;58.08;62784.63;4903601;29;20031;-79
2021/05/25 00:53:10;;;;;;;64.75;18.55;;;;;;;-150.07;56.49;61780.03;4915485;29;20027;-79
2021/05/25 00:55:40;;;;;;;66.63;16.50;;;;;;;-150.07;57.20;61696.31;4901324;29;20044;-79
2021/05/25 00:58:08;;;;;;;;;;;;;;;-150.07;57.91;61646.09;4915331;29;20035;-79
2021/05/25 01:00:40;;;;;;;56.63;15.48;;;;;;;-150.07;57.08;61717.25;4914616;29;20306;-81
2021/05/25 01:03:09;;;;;;;84.03;20.77;;;;;;;-150.07;58.29;61698.41;4914327;29;20048;-79
2021/05/25 01:05:36;;;;;;;65.55;17.55;;;;;;;-150.07;57.22;61579.13;4899470;29;20115;-79
2021/05/25 01:08:04;;;;;;;70.03;16.35;;;;;;;-150.07;57.99;61551.91;4895563;29;20033;-79
2021/05/25 01:10:37;;;;;;;59.33;16.10;;;;;;;-150.07;57.37;61608.41;4909630;29;20028;-79
2021/05/25 01:13:08;;;;;;;72.80;17.95;;;;;;;-150.07;58.49;61641.91;4914437;29;20028;-79
2021/05/25 01:15:36;;;;;;;70.88;17.70;;;;;;;-150.07;58.79;61566.56;4900777;29;20044;-79
2021/05/25 01:18:04;;;;;;;68.28;15.95;;;;;;;-150.07;58.54;61612.59;4914296;29;20038;-79
2021/05/25 01:20:36;;;;;;;69.25;16.70;;;;;;;-150.07;57.08;61524.72;4913963;29;20034;-79
2021/05/25 01:23:04;;;;;;;66.25;14.88;;;;;;;-150.07;56.94;61608.41;4914767;29;20119;-78
2021/05/25 01:25:31;;;;;;;74.82;19.30;;;;;;;-150.07;56.35;62801.38;4900765;29;20107;-81
2021/05/25 01:28:01;;;;;;;75.88;16.88;;;;;;;-150.07;56.24;61786.31;4907152;29;20033;-79
2021/05/25 01:30:28;;;;;;;;;;;;;;;-150.07;55.96;61815.59;4895907;29;20036;-79
2021/05/25 01:32:57;;;;;;;79.30;17.58;;;;;;;-150.07;55.35;61692.13;4895087;29;19911;-79
2021/05/25 01:35:25;;;;;;;73.28;16.75;;;;;;;-150.07;54.11;61800.94;4895260;29;20028;-79
2021/05/25 01:37:54;;;;;;;72.88;17.05;;;;;;;-150.07;55.58;61784.22;4895300;29;20498;-79
2021/05/25 01:40:21;;;;;;;79.35;16.02;;;;;;;-150.07;54.78;61727.69;4895750;29;20036;-79
2021/05/25 01:42:49;;;;;;;78.80;15.60;;;;;;;-150.07;55.59;61792.56;4898955;29;20037;-79
2021/05/25 01:45:25;;;;;;;75.32;16.85;;;;;;;-150.07;54.44;61518.44;4899100;29;20033;-79
2021/05/25 01:47:54;;;;;;;74.95;15.88;;;;;;;-150.07;54.37;61675.38;4899016;29;20024;-79
2021/05/25 01:50:24;;;;;;;87.55;21.63;;;;;;;-150.07;54.95;61629.34;4900695;29;20024;-80
2021/05/25 01:52:52;;;;;;;83.90;18.88;;;;;;;-150.07;55.66;61604.25;4916946;29;20371;-79
2021/05/25 01:55:37;;;;;;;72.53;17.40;;;;;;;-150.07;54.92;62631.84;4917616;29;20051;-81
2021/05/25 01:58:12;;;;;;;85.70;19.02;;;;;;;-150.07;55.45;61784.22;4917456;29;20032;-79
2021/05/25 02:00:43;;;;;;;94.65;20.77;;;;;;;-150.07;54.18;61602.16;4917525;29;20028;-80
2021/05/25 02:03:11;;;;;;;69.10;16.58;;;;;;;-150.07;54.83;61782.13;4917335;29;20063;-79
2021/05/25 02:05:38;;;;;;;78.97;19.50;;;;;;;-150.07;53.83;61713.06;4917566;29;20032;-80
2021/05/25 02:08:06;;;;;;;70.30;19.10;;;;;;;-150.07;54.31;61784.22;4917377;29;20083;-80
2021/05/25 02:10:39;;;;;;;68.45;17.60;;;;;;;-150.07;54.49;61788.38;4917201;29;20071;-79
2021/05/25 02:13:14;;;;;;;78.38;17.63;;;;;;;-150.07;54.99;61658.66;4917246;29;20034;-79
2021/05/25 02:15:45;;;;;;;53.42;14.10;;;;;;;-150.07;55.80;61939.06;4917110;29;20068;-79
2021/05/25 02:18:20;;;;;;;64.03;15.02;;;;;;;-150.07;55.17;61736.06;4917198;29;20118;-79
2021/05/25 02:20:49;;;;;;;67.63;18.27;;;;;;;-150.07;55.57;61742.34;4917279;29;20032;-79
2021/05/25 02:23:16;;;;;;;66.10;15.85;;;;;;;-150.07;56.74;61629.34;4917553;29;20028;-80
2021/05/25 02:25:44;;;;;;;66.45;15.23;;;;;;;-150.07;55.55;62160.91;4917102;29;20024;-78
2021/05/25 02:28:12;;;;;;;71.72;14.85;;;;;;;-150.07;55.38;61646.09;4916980;29;20020;-79
2021/05/25 02:30:40;;;;;;;63.47;15.80;;;;;;;-150.07;56.47;61102.03;4916932;29;20063;-79
2021/05/25 02:33:10;;;;;;;73.05;15.07;;;;;;;-150.07;56.56;61704.69;4916884;29;20581;-79
2021/05/25 02:35:37;;;;;;;86.13;16.08;;;;;;;-150.07;56.75;61618.88;4916827;29;20028;-78
2021/05/25 02:38:09;;;;;;;67.13;15.18;;;;;;;-150.07;57.92;61415.91;4911263;29;20043;-77
2021/05/25 02:40:37;;;;;;;64.47;13.57;;;;;;;-150.07;57.38;61543.56;4897815;29;20391;-79
2021/05/25 02:43:04;;;;;;;58.60;13.55;;;;;;;-150.07;58.10;61581.22;4915621;29;20090;-80
2021/05/25 02:45:32;;;;;;;63.67;17.35;;;;;;;-150.07;57.99;61625.16;4906216;29;20494;-80
2021/05/25 02:47:59;;;;;;;77.75;13.73;;;;;;;-150.07;58.29;61461.94;4914075;29;20035;-79
2021/05/25 02:50:26;;;;;;;74.05;15.23;;;;;;;-150.07;58.06;61591.69;4916800;29;20083;-79
2021/05/25 02:52:54;;;;;;;70.40;18.00;;;;;;;-150.07;57.73;61604.25;4917077;29;20052;-79
2021/05/25 02:55:23;;;;;;;72.43;16.67;;;;;;;-150.07;58.47;61461.94;4916459;29;20590;-78
2021/05/25 02:57:52;;;;;;;60.72;14.52;;;;;;;-150.07;58.16;61620.97;4916415;29;20498;-79
2021/05/25 03:00:24;;;;;;;58.90;13.00;;;;;;;-150.07;57.37;61512.16;4908210;29;20033;-79
2021/05/25 03:02:52;;;;;;;56.15;15.82;;;;;;;-150.07;56.51;62585.78;4911906;29;20040;-78
2021/05/25 03:05:22;;;;;;;63.53;13.35;;;;;;;-150.07;54.82;61805.13;4916519;29;20063;-79
2021/05/25 03:07:51;;;;;;;60.42;13.32;;;;;;;-150.07;55.05;61744.44;4916315;29;20075;-78
2021/05/25 03:10:20;;;;;;;63.55;15.60;;;;;;;-150.07;55.34;61761.19;4907176;29;20483;-79
2021/05/25 03:12:47;;;;;;;76.75;17.52;;;;;;;-150.07;54.72;61729.78;4897399;29;20496;-78
2021/05/25 03:15:18;;;;;;;56.92;15.48;;;;;;;-150.07;54.31;62730.22;4905018;29;20083;-79
2021/05/25 03:17:46;;;;;;;71.18;16.27;;;;;;;-150.07;55.19;61687.94;4916081;29;20032;-79
2021/05/25 03:20:14;;;;;;;69.28;15.55;;;;;;;-150.07;54.64;61526.81;4916225;29;20024;-78
2021/05/25 03:22:43;;;;;;;50.95;12.52;;;;;;;-150.07;55.12;61551.91;4916466;29;20048;-79
2021/05/25 03:25:12;;;;;;;73.20;16.55;;;;;;;-150.07;55.71;61641.91;4915908;29;20039;-80
2021/05/25 03:27:40;;;;;;;54.83;13.60;;;;;;;-150.07;55.65;61692.13;4915796;29;20035;-80
2021/05/25 03:30:12;;;;;;;49.40;11.52;;;;;;;-150.07;54.67;61687.94;4905784;29;20037;-79
2021/05/25 03:32:39;;;;;;;70.03;12.55;;;;;;;-150.07;54.48;61633.53;4910235;29;20483;-79
2021/05/25 03:35:09;;;;;;;63.53;14.18;;;;;;;-150.07;54.75;61813.50;4906067;29;20039;-79
2021/05/25 03:37:37;;;;;;;74.67;12.47;;;;;;;-150.07;55.68;61771.66;4915803;29;20056;-78
2021/05/25 03:40:06;;;;;;;57.58;13.45;;;;;;;-150.07;55.78;61790.47;4915681;29;20028;-80
2021/05/25 03:42:33;;;;;;;53.97;11.93;;;;;;;-150.07;56.18;61775.84;4915712;29;20036;-79
2021/05/25 03:45:00;;;;;;;48.30;14.80;;;;;;;-150.07;55.88;61874.19;4915581;29;20028;-78
2021/05/25 03:47:28;;;;;;;53.85;9.38;;;;;;;-150.07;53.56;61754.91;4915477;29;20036;-79
2021/05/25 03:50:06;;;;;;;41.28;9.50;;;;;;;-150.07;52.41;61878.38;4898834;29;20529;-78
2021/05/25 03:52:37;;;;;;;34.97;6.93;;;;;;;-150.07;52.28;61813.50;4897069;29;20398;-78
2021/05/25 03:55:10;;;;;;;45.53;8.90;;;;;;;-150.07;52.78;61702.59;4896557;29;20036;-79
2021/05/25 04:00:05;;;;;;;43.05;11.45;;;;;;;-150.07;53.54;61771.66;4909840;29;20074;-79
2021/05/25 04:02:33;;;;;;;41.10;8.02;;;;;;;-150.07;52.81;61593.78;4915326;29;20083;-79
2021/05/25 04:05:01;;;;;;;43.33;11.10;;;;;;;-150.07;51.97;61851.16;4914835;29;20064;-79
2021/05/25 04:07:28;;;;;;;50.80;10.98;;;;;;;-150.07;52.40;61780.03;4897177;29;20386;-79
2021/05/25 04:09:55;;;;;;;41.17;11.27;;;;;;;-150.07;51.72;61890.94;4896183;29;20028;-79
2021/05/25 04:12:22;;;;;;;39.90;7.82;;;;;;;-150.07;50.58;61960.00;4903225;29;20435;-79
2021/05/25 04:14:48;;;;;;;31.38;8.07;;;;;;;-150.07;50.64;61922.31;4914918;29;20083;-79
2021/05/25 04:17:15;;;;;;;29.75;7.63;;;;;;;-150.07;51.01;61826.06;4901821;29;20111;-78
2021/05/25 04:19:42;;;;;;;40.25;7.20;;;;;;;-150.07;51.22;61620.97;4915182;29;20016;-80
2021/05/25 04:22:09;;;;;;;37.50;7.05;;;;;;;-150.07;51.60;61918.13;4915554;29;20072;-80
2021/05/25 04:24:36;;;;;;;34.50;7.53;;;;;;;-150.07;50.79;61876.28;4915106;29;20056;-78
2021/05/25 04:27:03;;;;;;;25.92;6.90;;;;;;;-150.07;50.57;63014.91;4914978;29;20054;-79
2021/05/25 04:29:30;;;;;;;34.35;7.45;;;;;;;-150.07;50.36;61629.34;4914713;29;20478;-79
2021/05/25 04:31:56;;;;;;;27.63;7.38;;;;;;;-150.07;50.52;61855.34;4914609;29;20020;-79
2021/05/25 04:34:23;;;;;;;26.48;6.40;;;;;;;-150.07;50.61;61826.06;4914816;29;20371;-79
2021/05/25 04:36:50;;;;;;;31.75;6.07;;;;;;;-150.07;50.81;61777.94;4914618;29;20028;-79
2021/05/25 04:39:17;;;;;;;27.88;6.57;;;;;;;-150.07;50.82;61893.03;4914915;29;20486;-80
2021/05/25 04:41:44;;;;;;;49.03;7.93;;;;;;;-150.07;50.90;61750.72;4914739;29;20032;-79
2021/05/25 04:44:10;;;;;;;30.35;7.45;;;;;;;-150.07;51.25;61560.28;4914498;29;20075;-79
2021/05/25 04:46:37;;;;;;;30.77;8.30;;;;;;;-150.07;51.59;61800.94;4914554;29;20036;-80
2021/05/25 04:49:04;;;;;;;28.55;7.28;;;;;;;-150.07;51.11;61635.63;4886803;29;20028;-80
2021/05/25 04:51:31;;;;;;;31.35;6.55;;;;;;;-150.07;51.39;62615.09;4914556;29;20055;-80
2021/05/25 04:53:58;;;;;;;32.25;7.18;;;;;;;-150.07;52.53;61675.38;4915213;29;20032;-79
2021/05/25 04:56:25;;;;;;;40.58;8.45;;;;;;;-150.07;52.54;61765.38;4914945;29;20152;-80
2021/05/25 04:58:52;;;;;;;48.47;7.78;;;;;;;-150.07;52.53;61671.19;4909835;29;20029;-79
2021/05/25 05:01:19;;;;;;;24.73;7.03;;;;;;;-150.07;53.51;61706.78;4899011;29;20039;-79
2021/05/25 05:03:46;;;;;;;28.23;6.03;;;;;;;-150.07;52.33;61922.31;4908466;29;20375;-78
2021/05/25 05:06:13;;;;;;;29.33;7.05;;;;;;;-150.07;53.32;61782.13;4914343;29;20060;-78
2021/05/25 05:08:43;;;;;;;21.40;6.07;;;;;;;-150.07;53.40;61851.16;4914669;29;20024;-80
2021/05/25 05:11:10;;;;;;;32.78;7.78;;;;;;;-150.07;53.13;61830.25;4914333;29;20458;-79
2021/05/25 05:13:38;;;;;;;24.35;6.00;;;;;;;-150.07;53.82;61738.16;4914377;29;20133;-80
2021/05/25 05:16:05;;;;;;;42.10;7.65;;;;;;;-150.07;52.99;61955.81;4913284;29;20039;-80
2021/05/25 05:18:32;;;;;;;19.27;6.50;;;;;;;-150.07;53.13;61817.69;4914285;29;20036;-78
2021/05/25 05:20:59;;;;;;;31.33;7.38;;;;;;;-150.07;53.79;61830.25;4914358;29;20032;-80
2021/05/25 05:23:26;;;;;;;22.02;8.90;;;;;;;-150.07;54.22;61851.16;4901095;29;20068;-79
2021/05/25 05:25:53;;;;;;;26.95;8.45;;;;;;;-150.07;53.59;62759.53;4914248;29;20186;-78
2021/05/25 05:28:20;;;;;;;33.60;8.48;;;;;;;-150.07;54.90;61897.22;4914094;29;20482;-79
2021/05/25 05:30:47;;;;;;;21.15;6.05;;;;;;;-150.07;54.60;61537.28;4914202;29;20039;-79
2021/05/25 05:33:14;;;;;;;21.60;6.88;;;;;;;-150.07;54.72;62709.28;4914387;29;20435;-78
2021/05/25 05:35:41;;;;;;;26.95;5.95;;;;;;;-150.07;55.39;61708.88;4911457;29;20421;-79
2021/05/25 05:38:10;;;;;;;19.35;6.03;;;;;;;-150.07;53.97;61863.72;4903668;29;20021;-79
2021/05/25 05:40:37;;;;;;;21.77;7.85;;;;;;;-150.07;55.00;61800.94;4913997;29;20136;-79
2021/05/25 05:43:04;;;;;;;21.02;7.60;;;;;;;-150.07;54.07;61792.56;4913946;29;20032;-79
2021/05/25 05:45:31;;;;;;;21.95;5.85;;;;;;;-150.07;55.28;61376.16;4913768;29;20032;-79
2021/05/25 05:47:58;;;;;;;30.67;7.68;;;;;;;-150.07;55.09;61807.22;4913922;29;20028;-79
2021/05/25 05:50:25;;;;;;;28.33;5.78;;;;;;;-150.07;54.65;62897.69;4914084;29;20036;-79
2021/05/25 05:52:52;;;;;;;19.83;4.90;;;;;;;-150.07;54.70;61547.75;4914163;29;20152;-78
2021/05/25 05:55:19;;;;;;;36.92;6.43;;;;;;;-150.07;54.19;61913.94;4913808;29;20036;-79
2021/05/25 05:57:47;;;;;;;24.10;7.75;;;;;;;-150.07;54.11;62732.31;4902914;29;20032;-79
2021/05/25 06:00:16;;;;;;;22.88;5.60;;;;;;;-150.07;55.47;61792.56;4898447;29;20165;-78
2021/05/25 06:02:42;;;;;;;26.75;7.32;;;;;;;-150.07;54.66;61901.41;4913643;29;20505;-79
2021/05/25 06:05:10;;;;;;;11.68;4.15;;;;;;;-150.07;55.40;61884.66;4913857;29;20064;-79
2021/05/25 06:07:37;;;;;;;20.40;5.80;;;;;;;-150.07;54.45;61798.84;4913824;29;20108;-78
2021/05/25 06:10:05;;;;;;;19.08;5.78;;;;;;;-150.07;55.54;61842.81;4902062;29;20020;-79
2021/05/25 06:12:32;;;;;;;22.17;6.05;;;;;;;-150.07;55.51;61836.53;4912494;29;20020;-77
2021/05/25 06:15:01;;;;;;;30.98;6.20;;;;;;;-150.07;55.63;62770.00;4913803;29;20047;-79
2021/05/25 06:17:28;;;;;;;28.83;7.43;;;;;;;-150.07;56.11;61863.72;4913709;29;20020;-80
2021/05/25 06:19:55;;;;;;;27.95;6.70;;;;;;;-150.07;56.68;62052.09;4913853;29;20139;-77
2021/05/25 06:22:22;;;;;;;26.58;6.57;;;;;;;-150.07;56.34;61884.66;4913891;29;20028;-79
2021/05/25 06:24:50;;;;;;;32.13;6.10;;;;;;;-150.07;56.54;61803.03;4904619;29;20100;-79
2021/05/25 06:27:17;;;;;;;26.33;7.10;;;;;;;-150.07;56.11;62433.00;4911659;29;20514;-79
2021/05/25 06:29:45;;;;;;;25.48;5.10;;;;;;;-150.07;56.11;61926.50;4916764;29;20127;-79
2021/05/25 06:32:12;;;;;;;23.30;5.72;;;;;;;-150.07;56.28;61951.63;4916822;29;20082;-79
2021/05/25 06:34:39;;;;;;;24.88;7.50;;;;;;;-150.07;56.24;61750.72;4916877;29;20417;-78
2021/05/25 06:37:06;;;;;;;34.83;8.32;;;;;;;-150.07;57.10;61771.66;4916675;29;20031;-79
2021/05/25 06:39:33;;;;;;;20.60;6.45;;;;;;;-150.07;56.63;62713.47;4913113;29;20110;-79
2021/05/25 06:42:01;;;;;;;24.85;9.02;;;;;;;-150.07;56.66;61777.94;4897911;29;20188;-77
2021/05/25 06:44:31;;;;;;;27.10;6.38;;;;;;;-150.07;56.49;61888.84;4913561;29;20568;-79
2021/05/25 06:46:59;;;;;;;34.05;6.82;;;;;;;-150.07;55.91;61759.09;4907223;29;20028;-79
2021/05/25 06:49:27;;;;;;;22.90;7.45;;;;;;;-150.07;55.86;61851.16;4897788;29;20029;-79
2021/05/25 06:51:54;;;;;;;34.58;9.40;;;;;;;-150.07;56.43;61903.50;4897776;29;20341;-79
2021/05/25 06:54:21;;;;;;;35.70;9.32;;;;;;;-150.07;56.46;61955.81;4898238;29;20491;-79
2021/05/25 06:56:48;;;;;;;22.40;7.63;;;;;;;-150.07;56.43;61884.66;4897661;29;20172;-79
2021/05/25 06:59:15;;;;;;;27.98;7.50;;;;;;;-150.07;57.15;61876.28;4897485;29;20116;-79
2021/05/25 07:01:42;;;;;;;27.52;8.38;;;;;;;-150.07;57.06;61872.09;4897272;29;20049;-79
2021/05/25 07:04:09;;;;;;;22.60;6.95;;;;;;;-150.07;57.43;61564.47;4897271;29;20164;-79
2021/05/25 07:06:35;;;;;;;33.50;7.18;;;;;;;-150.07;57.25;62058.34;4897476;29;20039;-79
2021/05/25 07:09:03;;;;;;;29.58;7.97;;;;;;;-150.07;56.83;62253.00;4897264;29;20060;-78
2021/05/25 07:11:30;;;;;;;36.80;10.98;;;;;;;-150.07;56.86;61847.00;4897372;29;20017;-80
2021/05/25 07:13:57;;;;;;;28.58;9.25;;;;;;;-150.07;57.27;61867.91;4898724;29;20159;-79
2021/05/25 07:16:25;;;;;;;37.15;8.50;;;;;;;-150.07;57.15;61767.47;4901522;29;20035;-79
2021/05/25 07:18:52;;;;;;;37.45;10.73;;;;;;;-150.07;56.58;62041.63;4891652;29;20079;-79
2021/05/25 07:21:18;;;;;;;38.70;8.82;;;;;;;-150.07;57.35;61495.41;4903162;29;20032;-76
2021/05/25 07:23:45;;;;;;;35.38;8.63;;;;;;;-150.07;57.14;61905.59;4903092;29;20123;-77
2021/05/25 07:26:12;;;;;;;24.48;7.40;;;;;;;-150.07;57.29;61600.06;4896898;29;20407;-78
2021/05/25 07:28:39;;;;;;;30.13;8.30;;;;;;;-150.07;57.39;61503.78;4896455;29;20028;-78
2021/05/25 07:31:06;;;;;;;30.85;9.50;;;;;;;-150.07;57.32;61882.56;4912328;29;20083;-78
2021/05/25 07:33:33;;;;;;;34.22;7.30;;;;;;;-150.07;56.71;61815.59;4898172;29;20052;-77
2021/05/25 07:36:00;;;;;;;26.45;8.00;;;;;;;-150.07;57.23;61888.84;4908235;29;20040;-79
2021/05/25 07:38:27;;;;;;;33.05;9.55;;;;;;;-150.07;56.77;61633.53;4905175;29;20036;-78
2021/05/25 07:40:54;;;;;;;39.10;8.75;;;;;;;-150.07;57.07;62732.31;4907631;29;20032;-79
2021/05/25 07:43:21;;;;;;;35.97;9.20;;;;;;;-150.07;57.08;61930.69;4898220;29;20037;-78
2021/05/25 07:45:48;;;;;;;32.95;9.00;;;;;;;-150.07;58.32;61769.56;4895006;29;20395;-81
2021/05/25 07:48:15;;;;;;;27.38;8.65;;;;;;;-150.07;58.29;61713.06;4907063;29;20119;-79
2021/05/25 07:50:42;;;;;;;35.10;9.75;;;;;;;-150.07;58.43;61874.19;4914074;29;20128;-79
2021/05/25 07:53:09;;;;;;;38.95;9.90;;;;;;;-150.07;58.50;61880.47;4903151;29;20402;-80
2021/05/25 07:55:36;;;;;;;29.73;8.88;;;;;;;-150.07;58.19;61765.38;4902030;29;20486;-79
2021/05/25 07:58:04;;;;;;;36.58;9.18;;;;;;;-150.07;57.87;61604.25;4903708;29;20056;-79
2021/05/25 08:00:32;;;;;;;34.95;10.25;;;;;;;-150.07;58.43;61813.50;4897546;29;20037;-79
2021/05/25 08:02:59;;;;;;;29.65;9.05;;;;;;;-150.07;59.03;61842.81;4895507;29;20040;-77
2021/05/25 08:05:28;;;;;;;36.15;12.18;;;;;;;-150.07;59.19;62403.69;4895718;29;20032;-79
2021/05/25 08:07:56;;;;;;;32.28;9.43;;;;;;;-150.07;58.49;61832.34;4902829;29;20047;-79
2021/05/25 08:10:24;;;;;;;27.00;9.13;;;;;;;-150.07;58.65;61830.25;4907513;29;20047;-79
2021/05/25 08:12:51;;;;;;;41.58;11.07;;;;;;;-150.07;58.37;61826.06;4895873;29;20119;-80
2021/05/25 08:15:19;;;;;;;44.83;10.90;;;;;;;-150.07;58.00;61618.88;4908768;29;20040;-80
2021/05/25 08:18:05;;;;;;;34.25;8.75;;;;;;;-150.07;57.84;61851.16;4894329;29;20029;-79
2021/05/25 08:20:34;;;;;;;35.72;10.40;;;;;;;-150.07;57.51;62943.72;4903831;29;20028;-79
2021/05/25 08:23:03;;;;;;;33.50;10.07;;;;;;;-150.07;57.29;61872.09;4907821;29;20052;-78
2021/05/25 08:25:32;;;;;;;25.92;9.27;;;;;;;-150.07;57.65;62625.56;4895120;29;20056;-78
2021/05/25 08:28:01;;;;;;;48.30;10.73;;;;;;;-150.07;57.56;61763.28;4894678;29;20080;-79
2021/05/25 08:30:31;;;;;;;42.45;11.90;;;;;;;-150.07;58.09;61669.09;4895871;29;20040;-86
2021/05/25 08:32:59;;;;;;;35.20;12.77;;;;;;;-150.07;58.37;61660.75;4899062;29;20067;-88
2021/05/25 08:35:29;;;;;;;35.10;9.35;;;;;;;-150.07;57.64;61698.41;4896767;29;20031;-85
2021/05/25 08:38:02;;;;;;;44.50;12.15;;;;;;;-150.07;58.32;61782.13;4893352;29;20518;-84
2021/05/25 08:40:30;;;;;;;32.42;11.02;;;;;;;-150.07;58.33;61780.03;4891892;29;20040;-84
2021/05/25 08:42:58;;;;;;;34.55;11.48;;;;;;;-150.07;58.25;61382.44;4893350;29;20333;-85
2021/05/25 08:45:26;;;;;;;30.08;10.38;;;;;;;-150.07;58.38;62826.50;4896175;29;20032;-85
2021/05/25 08:47:55;;;;;;;36.20;10.77;;;;;;;-150.07;58.17;61826.06;4898685;29;20020;-85
2021/05/25 08:50:28;;;;;;;63.47;14.02;;;;;;;-150.07;58.03;61639.81;4911281;29;20446;-84
2021/05/25 08:53:00;;;;;;;40.72;10.27;;;;;;;-150.07;58.20;62698.81;4896776;29;20027;-85
2021/05/25 08:55:29;;;;;;;37.85;11.77;;;;;;;-150.07;57.40;61863.72;4900757;29;20083;-86
2021/05/25 08:57:57;;;;;;;44.25;12.35;;;;;;;-150.07;57.96;61803.03;4897548;29;20028;-87
2021/05/25 09:00:27;;;;;;;39.75;11.10;;;;;;;-150.07;57.89;61311.28;4894290;29;20778;-83
2021/05/25 09:02:56;;;;;;;50.65;12.32;;;;;;;-150.07;58.02;62600.44;4907202;29;20147;-77
2021/05/25 09:05:24;;;;;;;44.30;11.13;;;;;;;-150.07;57.94;61823.97;4902695;29;20099;-75
2021/05/25 09:07:54;;;;;;;31.90;11.20;;;;;;;-150.07;58.19;61761.19;4898542;29;20128;-75
2021/05/25 09:10:22;;;;;;;36.05;13.18;;;;;;;-150.07;58.05;61775.84;4900070;29;20028;-77
2021/05/25 09:12:51;;;;;;;39.00;10.07;;;;;;;-150.07;58.21;62579.50;4904893;29;20036;-77
2021/05/25 09:15:48;;;;;;;46.97;14.10;;;;;;;-150.07;58.08;61803.03;4895302;29;20088;-77
2021/05/25 09:18:17;;;;;;;34.35;11.52;;;;;;;-150.07;58.24;61759.09;4895649;29;20640;-76
2021/05/25 09:20:47;;;;;;;39.22;10.68;;;;;;;-150.07;58.38;61759.09;4880820;29;20037;-76
2021/05/25 09:23:20;;;;;;;40.22;10.75;;;;;;;-150.07;58.73;62883.03;4895515;29;20087;-76
2021/05/25 09:25:52;;;;;;;36.22;11.10;;;;;;;-150.07;59.27;61713.06;4894452;29;20028;-75
2021/05/25 09:28:20;;;;;;;42.90;13.40;;;;;;;-150.07;58.93;61721.44;4892938;29;20793;-75
2021/05/25 09:30:48;;;;;;;41.08;12.70;;;;;;;-150.07;59.10;61591.69;4896385;29;20025;-76
2021/05/25 09:33:16;;;;;;;40.05;13.25;;;;;;;-150.07;58.07;61828.16;4891204;29;20469;-79
2021/05/25 09:35:47;;;;;;;47.25;10.98;;;;;;;-150.07;58.07;61780.03;4895335;29;20376;-76
2021/05/25 09:38:36;;;;;;;34.22;11.90;;;;;;;-150.07;58.27;61832.34;4894707;29;20040;-76
2021/05/25 09:41:04;;;;;;;36.63;12.10;;;;;;;-150.07;57.74;62571.13;4879072;29;20041;-73
2021/05/25 09:43:33;;;;;;;25.70;10.50;;;;;;;-150.07;57.62;61424.28;4896004;29;20131;-77
2021/05/25 09:46:18;;;;;;;38.80;11.15;;;;;;;-150.07;57.77;61736.06;4913142;29;20036;-74
2021/05/25 09:48:44;;;;;;;38.78;11.85;;;;;;;-150.07;58.06;61727.69;4909812;29;20434;-71
2021/05/25 09:51:32;;;;;;;32.85;10.63;;;;;;;-150.07;58.40;61704.69;4895381;29;20417;-76
2021/05/25 09:54:02;;;;;;;43.22;12.38;;;;;;;-150.07;58.32;61687.94;4892464;29;20040;-73
2021/05/25 09:56:32;;;;;;;29.58;12.73;;;;;;;-150.07;58.42;61692.13;4901257;29;20088;-77
2021/05/25 09:59:00;;;;;;;43.22;12.18;;;;;;;-150.07;58.14;61725.59;4899645;29;20033;-74
2021/05/25 10:01:35;;;;;;;54.75;14.10;;;;;;;-150.07;58.02;61692.13;4908800;29;20110;-78
2021/05/25 10:04:12;;;;;;;39.38;10.80;;;;;;;-150.07;57.32;61637.72;4898025;29;20040;-76
2021/05/25 10:06:42;;;;;;;39.05;10.82;;;;;;;-150.07;57.36;61681.66;4898549;29;20120;-75
2021/05/25 10:09:10;;;;;;;29.20;9.68;;;;;;;-150.07;57.69;61323.84;4897547;29;20042;-74
2021/05/25 10:11:42;;;;;;;33.90;11.65;;;;;;;-150.07;57.78;61648.19;4898364;29;20387;-73
2021/05/25 10:14:13;;;;;;;34.67;11.88;;;;;;;-150.07;57.42;61679.56;4898596;29;20456;-73
2021/05/25 10:16:46;;;;;;;35.28;10.93;;;;;;;-150.07;57.69;61656.56;4898510;29;20483;-74
2021/05/25 10:19:25;;;;;;;38.85;11.32;;;;;;;-150.07;57.43;61690.03;4897792;29;20036;-74
2021/05/25 10:21:53;;;;;;;28.33;11.07;;;;;;;-150.07;57.27;61679.56;4895801;29;20067;-74
2021/05/25 10:24:20;;;;;;;34.38;12.00;;;;;;;-150.07;57.54;61662.84;4879292;29;20049;-74
2021/05/25 10:26:47;;;;;;;40.42;11.73;;;;;;;-150.07;57.11;61652.38;4891548;29;20494;-75
2021/05/25 10:29:15;;;;;;;33.67;10.40;;;;;;;-150.07;56.97;62116.97;4897358;29;20043;-75
2021/05/25 10:31:48;;;;;;;35.53;10.40;;;;;;;-150.07;56.81;61623.06;4898094;29;20016;-75
2021/05/25 10:34:19;;;;;;;33.15;11.52;;;;;;;-150.07;56.56;61671.19;4885041;29;20067;-75
2021/05/25 10:36:53;;;;;;;32.47;10.65;;;;;;;-150.07;56.35;61733.97;4879732;29;20045;-74
2021/05/25 10:39:41;;;;;;;30.65;10.65;;;;;;;-150.07;56.11;61702.59;4904300;29;20471;-75
2021/05/25 10:42:26;;;;;;;28.45;9.52;;;;;;;-150.07;56.21;61721.44;4907150;29;20024;-74
2021/05/25 10:45:11;;;;;;;32.45;8.43;;;;;;;-150.07;55.60;61702.59;4903648;29;20386;-74
2021/05/25 10:47:59;;;;;;;32.47;9.25;;;;;;;-150.07;55.32;61738.16;4913031;29;20040;-73
2021/05/25 10:50:33;;;;;;;30.25;10.00;;;;;;;-150.07;55.38;61738.16;4878816;29;20025;-75
2021/05/25 10:52:59;;;;;;;31.65;10.60;;;;;;;-150.07;55.43;61704.69;4878998;29;20039;-75
2021/05/25 10:55:35;;;;;;;29.80;9.90;;;;;;;-150.07;56.06;61685.84;4904167;29;20383;-74
2021/05/25 10:58:35;;;;;;;41.13;9.90;;;;;;;-150.07;56.33;61757.00;4911448;29;20028;-74
2021/05/25 11:01:08;;;;;;;28.65;9.02;;;;;;;-150.07;55.58;61759.09;4910756;29;20032;-75
2021/05/25 11:03:35;;;;;;;31.02;9.13;;;;;;;-150.07;55.65;61729.78;4906975;29;20048;-75
2021/05/25 11:06:05;;;;;;;30.88;9.75;;;;;;;-150.07;55.51;61763.28;4916396;29;20040;-73
2021/05/25 11:08:36;;;;;;;;;;;;;;;-150.07;55.50;61738.16;4908370;29;20060;-75
2021/05/25 11:11:10;;;;;;;26.70;9.35;;;;;;;-150.07;55.90;61673.28;4897534;29;19963;-74
2021/05/25 11:13:41;;;;;;;28.70;9.90;;;;;;;-150.07;56.00;61704.69;4896350;29;20044;-74
2021/05/25 11:16:25;;;;;;;30.88;8.50;;;;;;;-150.07;55.85;61713.06;4897276;29;20068;-74